Time;durP1;ratioP1;P1;durP2;ratioP2;P2;SDS_P1;SDS_P2;PMS_P1;PMS_P2;Temp;Humidity;BMP_temperature;BMP_pressure;BME280_temperature;BME280_humidity;BME280_pressure;Samples;Min_cycle;Max_cycle;Signal;HPM_P1;HPM_P2
2022/06/20 00:00:42;;;;;;;8.10;1.77;;;14.30;99.90;;;;;;5023409;28;20455;-73
2022/06/20 00:03:19;;;;;;;8.07;1.80;;;14.30;99.90;;;;;;5026483;28;20037;-73
2022/06/20 00:05:44;;;;;;;8.75;1.88;;;14.20;99.90;;;;;;5014451;28;20033;-73
2022/06/20 00:08:11;;;;;;;6.72;1.80;;;14.20;99.90;;;;;;5026080;28;20025;-74
2022/06/20 00:10:39;;;;;;;9.77;2.17;;;14.20;99.90;;;;;;5024538;28;20033;-73
2022/06/20 00:13:20;;;;;;;7.50;1.60;;;14.20;99.90;;;;;;5025504;28;20102;-72
2022/06/20 00:15:47;;;;;;;6.93;1.55;;;14.20;99.90;;;;;;5027057;28;20030;-71
2022/06/20 00:18:13;;;;;;;7.18;1.73;;;14.20;99.90;;;;;;5025255;28;20025;-72
2022/06/20 00:20:39;;;;;;;7.47;1.90;;;14.10;99.90;;;;;;5025159;28;20183;-72
2022/06/20 00:23:05;;;;;;;9.68;1.73;;;14.20;99.90;;;;;;5007953;28;20030;-71
2022/06/20 00:25:31;;;;;;;7.03;2.03;;;14.20;99.90;;;;;;5009498;28;20025;-76
2022/06/20 00:27:57;;;;;;;6.10;1.92;;;14.10;99.90;;;;;;5027098;28;20395;-71
2022/06/20 00:30:24;;;;;;;6.82;1.30;;;14.10;99.90;;;;;;5025071;28;20383;-71
2022/06/20 00:32:50;;;;;;;8.52;1.80;;;14.10;99.90;;;;;;5025535;28;20044;-71
2022/06/20 00:35:16;;;;;;;8.20;2.00;;;14.10;99.90;;;;;;5007713;28;20052;-72
2022/06/20 00:37:42;;;;;;;8.68;1.80;;;14.10;99.90;;;;;;5008618;28;20037;-70
2022/06/20 00:40:20;;;;;;;6.90;2.10;;;14.10;99.90;;;;;;5029111;28;20083;-72
2022/06/20 00:42:46;;;;;;;6.97;1.77;;;14.10;99.90;;;;;;5024883;28;20593;-73
2022/06/20 00:45:13;;;;;;;9.05;2.10;;;14.00;99.90;;;;;;5024428;28;20037;-71
2022/06/20 00:47:41;;;;;;;8.10;2.15;;;14.00;99.90;;;;;;5027498;28;20033;-72
2022/06/20 00:50:22;;;;;;;8.98;1.88;;;13.90;99.90;;;;;;5025070;28;20120;-71
2022/06/20 00:52:57;;;;;;;10.40;2.38;;;13.90;99.90;;;;;;5029476;28;20112;-71
2022/06/20 00:55:42;;;;;;;8.95;2.22;;;13.90;99.90;;;;;;5043568;28;20068;-72
2022/06/20 00:58:14;;;;;;;9.52;1.98;;;13.80;99.90;;;;;;5026566;28;20164;-72
2022/06/20 01:00:40;;;;;;;11.23;2.05;;;13.80;99.90;;;;;;5010832;28;20095;-72
2022/06/20 01:03:13;;;;;;;7.82;1.83;;;13.70;99.90;;;;;;5029930;28;20044;-71
2022/06/20 01:05:53;;;;;;;10.45;2.13;;;13.70;99.90;;;;;;5012071;28;20681;-72
2022/06/20 01:08:25;;;;;;;10.32;1.98;;;13.70;99.90;;;;;;5009444;28;20026;-72
2022/06/20 01:11:05;;;;;;;9.70;2.05;;;13.60;99.90;;;;;;5008351;28;20044;-76
2022/06/20 01:13:30;;;;;;;9.95;2.60;;;13.60;99.90;;;;;;5034282;28;20025;-73
2022/06/20 01:16:07;;;;;;;9.30;2.10;;;13.60;99.90;;;;;;5026745;28;20052;-74
2022/06/20 01:18:34;;;;;;;10.30;2.22;;;13.50;99.90;;;;;;5015857;28;20104;-71
2022/06/20 01:21:10;;;;;;;9.10;2.40;;;13.50;99.90;;;;;;5029179;28;20029;-72
2022/06/20 01:24:00;;;;;;;8.45;2.33;;;13.50;99.90;;;;;;5032334;28;20036;-72
2022/06/20 01:26:47;;;;;;;9.77;2.45;;;13.50;99.90;;;;;;5035415;28;20037;-72
2022/06/20 01:29:13;;;;;;;9.57;2.13;;;13.50;99.90;;;;;;5025045;28;20044;-72
2022/06/20 01:31:45;;;;;;;10.20;1.98;;;13.40;99.90;;;;;;5016463;28;20125;-72
2022/06/20 01:34:15;;;;;;;8.75;1.92;;;13.40;99.90;;;;;;5010480;28;20029;-73
2022/06/20 01:39:29;;;;;;;9.88;2.50;;;13.30;99.90;;;;;;5035877;28;20395;-72
2022/06/20 01:44:55;;;;;;;13.48;2.65;;;13.30;99.90;;;;;;5028912;28;20491;-71
2022/06/20 01:47:21;;;;;;;9.55;2.20;;;13.30;99.90;;;;;;5033618;28;20129;-70
2022/06/20 01:49:49;;;;;;;12.10;2.47;;;13.30;99.90;;;;;;5028963;28;20120;-71
2022/06/20 01:52:29;;;;;;;8.52;2.17;;;13.20;99.90;;;;;;5030102;28;20041;-71
2022/06/20 01:54:59;;;;;;;;;;;13.20;99.90;;;;;;5029915;28;20041;-71
2022/06/20 01:57:29;;;;;;;8.35;2.20;;;13.20;99.90;;;;;;5031884;28;19917;-73
2022/06/20 02:00:00;;;;;;;;;;;13.10;99.90;;;;;;5027921;28;20042;-74
2022/06/20 02:02:29;;;;;;;8.40;2.22;;;13.10;99.90;;;;;;5033383;28;19978;-72
2022/06/20 02:04:54;;;;;;;6.65;2.10;;;13.10;99.90;;;;;;5012705;28;20697;-70
2022/06/20 02:07:20;;;;;;;8.93;2.10;;;13.10;99.90;;;;;;5037262;28;20038;-71
2022/06/20 02:09:46;;;;;;;8.88;1.90;;;13.10;99.90;;;;;;5007275;28;20510;-71
2022/06/20 02:12:12;;;;;;;12.38;2.42;;;13.10;99.90;;;;;;5026193;28;20039;-71
2022/06/20 02:14:41;;;;;;;9.77;2.55;;;13.10;99.90;;;;;;5033678;28;20493;-72
2022/06/20 02:17:20;;;;;;;10.27;2.17;;;13.10;99.90;;;;;;5012898;28;20388;-70
2022/06/20 02:19:51;;;;;;;10.80;2.28;;;13.10;99.90;;;;;;5038214;28;20031;-75
2022/06/20 02:22:19;;;;;;;8.00;2.33;;;13.10;99.90;;;;;;5010661;28;20037;-71
2022/06/20 02:24:48;;;;;;;8.07;2.40;;;13.10;99.90;;;;;;5035096;28;20038;-71
2022/06/20 02:27:56;;;;;;;9.45;2.35;;;13.10;99.90;;;;;;5028714;28;20037;-73
2022/06/20 02:30:22;;;;;;;8.75;2.10;;;13.10;99.90;;;;;;4993727;28;20674;-72
2022/06/20 02:32:55;;;;;;;6.35;1.90;;;13.10;99.90;;;;;;5017421;28;20025;-71
2022/06/20 02:35:21;;;;;;;9.38;2.13;;;13.10;99.90;;;;;;5023449;28;20034;-71
2022/06/20 02:37:48;;;;;;;9.77;2.30;;;13.10;99.90;;;;;;5036348;28;20091;-71
2022/06/20 02:40:17;;;;;;;11.02;2.40;;;13.10;99.90;;;;;;5017552;28;20095;-71
2022/06/20 02:42:51;;;;;;;10.50;2.08;;;13.10;99.90;;;;;;5028639;28;20067;-72
2022/06/20 02:45:18;;;;;;;8.68;2.30;;;13.10;99.90;;;;;;5031639;28;20124;-71
2022/06/20 02:47:47;;;;;;;10.43;2.78;;;13.10;99.90;;;;;;5008911;28;20117;-71
2022/06/20 02:50:17;;;;;;;10.23;2.95;;;13.10;99.90;;;;;;5013844;28;20037;-71
2022/06/20 02:52:54;;;;;;;8.20;2.40;;;13.10;99.90;;;;;;5022713;28;20340;-71
2022/06/20 02:55:20;;;;;;;11.38;2.00;;;13.10;99.90;;;;;;5007912;28;20037;-73
2022/06/20 02:57:53;;;;;;;10.05;2.42;;;13.00;99.90;;;;;;5009756;28;20131;-71
2022/06/20 03:00:31;;;;;;;10.30;2.80;;;13.10;99.90;;;;;;5027210;28;20103;-74
2022/06/20 03:03:03;;;;;;;11.68;2.42;;;13.00;99.90;;;;;;5023992;28;20539;-70
2022/06/20 03:05:29;;;;;;;8.57;2.35;;;13.00;99.90;;;;;;5008008;28;20029;-74
2022/06/20 03:07:55;;;;;;;7.10;2.25;;;13.00;99.90;;;;;;5026218;28;20080;-72
2022/06/20 03:10:23;;;;;;;10.10;2.10;;;13.00;99.90;;;;;;5026983;28;20187;-74
2022/06/20 03:12:49;;;;;;;11.20;2.10;;;12.90;99.90;;;;;;5009102;28;20057;-72
2022/06/20 03:15:16;;;;;;;7.57;2.20;;;12.90;99.90;;;;;;5035714;28;20068;-72
2022/06/20 03:17:45;;;;;;;8.10;2.25;;;12.90;99.90;;;;;;5015228;28;20036;-73
2022/06/20 03:20:13;;;;;;;12.80;2.35;;;12.90;99.90;;;;;;5027329;28;20025;-72
2022/06/20 03:22:49;;;;;;;8.05;2.08;;;12.90;99.90;;;;;;5026625;28;20037;-76
2022/06/20 03:25:16;;;;;;;8.57;1.95;;;12.80;99.90;;;;;;5007978;28;20589;-73
2022/06/20 03:27:43;;;;;;;9.75;2.40;;;12.80;99.90;;;;;;5018887;28;20026;-72
2022/06/20 03:30:20;;;;;;;7.40;2.00;;;12.80;99.90;;;;;;5014387;28;20044;-72
2022/06/20 03:32:46;;;;;;;11.70;2.25;;;12.80;99.90;;;;;;5006975;28;20064;-75
2022/06/20 03:35:12;;;;;;;9.18;2.03;;;12.70;99.90;;;;;;5010258;28;20116;-73
2022/06/20 03:37:38;;;;;;;7.60;1.90;;;12.70;99.90;;;;;;5035674;28;20028;-73
2022/06/20 03:40:05;;;;;;;11.73;2.22;;;12.70;99.90;;;;;;5026936;28;20116;-74
2022/06/20 03:42:31;;;;;;;7.95;2.03;;;12.70;99.90;;;;;;5005513;28;20529;-73
2022/06/20 03:44:59;;;;;;;9.20;1.80;;;12.60;99.90;;;;;;5032973;28;20037;-72
2022/06/20 03:47:47;;;;;;;8.77;2.25;;;12.60;99.90;;;;;;5015229;28;20025;-72
2022/06/20 03:50:22;;;;;;;8.82;2.10;;;12.60;99.90;;;;;;5007655;28;20742;-72
2022/06/20 03:53:10;;;;;;;7.15;2.03;;;12.60;99.90;;;;;;5023501;28;20087;-72
2022/06/20 03:56:00;;;;;;;10.75;2.25;;;12.60;99.90;;;;;;5026617;28;20037;-72
2022/06/20 03:58:56;;;;;;;9.23;2.05;;;12.60;99.90;;;;;;5026747;28;20137;-72
2022/06/20 04:01:31;;;;;;;11.23;2.28;;;12.50;99.90;;;;;;4945536;28;20035;-72
2022/06/20 04:04:06;;;;;;;9.55;2.10;;;12.50;99.90;;;;;;4943503;28;20047;-72
2022/06/20 04:06:46;;;;;;;9.73;2.10;;;12.50;99.90;;;;;;4956174;28;20046;-73
2022/06/20 04:12:57;;;;;;;9.25;2.28;;;12.50;99.90;;;;;;4903091;29;20694;-71
2022/06/20 04:15:29;;;;;;;12.43;2.00;;;12.50;99.90;;;;;;4905148;29;20526;-72
2022/06/20 04:18:29;;;;;;;9.10;2.30;;;12.50;99.90;;;;;;4902941;29;20036;-73
2022/06/20 04:20:58;;;;;;;12.82;2.70;;;12.50;99.90;;;;;;4904494;29;20135;-71
2022/06/20 04:23:39;;;;;;;9.77;2.20;;;12.50;99.90;;;;;;4903821;29;20466;-72
2022/06/20 04:26:22;;;;;;;9.02;2.00;;;12.50;99.90;;;;;;4903768;29;20065;-75
2022/06/20 04:29:03;;;;;;;11.32;2.25;;;12.50;99.90;;;;;;4902827;29;20046;-71
2022/06/20 04:31:54;;;;;;;10.88;2.33;;;12.50;99.90;;;;;;4900875;29;20044;-71
2022/06/20 04:34:31;;;;;;;11.18;2.40;;;12.50;99.90;;;;;;4891210;29;20676;-72
2022/06/20 04:37:10;;;;;;;8.63;2.35;;;12.50;99.90;;;;;;4904895;29;20076;-73
2022/06/20 04:39:56;;;;;;;11.10;2.25;;;12.50;99.90;;;;;;4945250;29;20619;-72
2022/06/20 04:42:37;;;;;;;9.05;2.13;;;12.50;99.90;;;;;;4941610;29;20146;-75
2022/06/20 04:45:15;;;;;;;9.77;2.30;;;12.50;99.90;;;;;;4926536;29;20043;-72
2022/06/20 04:47:46;;;;;;;9.43;2.35;;;12.50;99.90;;;;;;4975567;28;20103;-73
2022/06/20 04:50:19;;;;;;;8.25;2.42;;;12.50;99.90;;;;;;5010138;28;20079;-73
2022/06/20 04:52:47;;;;;;;9.73;2.55;;;12.60;99.90;;;;;;5038918;28;20037;-73
2022/06/20 04:55:16;;;;;;;10.32;2.55;;;12.60;99.90;;;;;;5023803;28;20052;-72
2022/06/20 04:57:42;;;;;;;9.20;2.05;;;12.60;99.90;;;;;;5012519;28;20489;-72
2022/06/20 05:00:17;;;;;;;11.75;2.53;;;12.70;99.90;;;;;;5025424;28;20039;-73
2022/06/20 05:02:43;;;;;;;8.18;2.15;;;12.80;99.90;;;;;;5024165;28;20029;-73
2022/06/20 05:05:15;;;;;;;11.32;2.38;;;12.70;99.90;;;;;;5016478;28;20044;-74
2022/06/20 05:07:41;;;;;;;10.15;2.20;;;12.80;99.90;;;;;;5007409;28;20033;-72
2022/06/20 05:10:14;;;;;;;9.70;2.40;;;12.80;99.90;;;;;;5024453;28;20029;-70
2022/06/20 05:12:46;;;;;;;10.38;2.33;;;12.90;99.90;;;;;;5005594;28;20030;-71
2022/06/20 05:15:23;;;;;;;9.48;2.10;;;12.90;99.90;;;;;;5027987;28;20042;-71
2022/06/20 05:17:51;;;;;;;7.95;1.90;;;12.90;99.90;;;;;;5013888;28;20036;-71
2022/06/20 05:20:30;;;;;;;7.63;1.90;;;12.90;99.90;;;;;;5026543;28;20034;-70
2022/06/20 05:23:09;;;;;;;9.05;2.20;;;13.00;99.90;;;;;;5024059;28;20732;-72
2022/06/20 05:25:37;;;;;;;7.45;2.33;;;13.00;99.90;;;;;;5026620;28;20029;-72
2022/06/20 05:28:10;;;;;;;7.70;2.10;;;13.00;99.90;;;;;;5008198;28;20459;-72
2022/06/20 05:30:37;;;;;;;8.07;1.92;;;13.10;99.90;;;;;;5024332;28;20083;-73
2022/06/20 05:33:23;;;;;;;9.18;2.42;;;13.10;99.90;;;;;;5028345;28;20030;-73
2022/06/20 05:36:12;;;;;;;8.63;1.98;;;13.10;99.90;;;;;;5008986;28;20095;-72
2022/06/20 05:38:41;;;;;;;7.90;2.17;;;13.10;99.90;;;;;;5009501;28;20037;-73
2022/06/20 05:41:08;;;;;;;8.30;2.03;;;13.20;99.90;;;;;;5025196;28;20072;-74
2022/06/20 05:43:34;;;;;;;7.30;2.00;;;13.20;99.90;;;;;;5024011;28;21023;-73
2022/06/20 05:46:07;;;;;;;9.15;2.30;;;13.20;99.90;;;;;;5020445;28;20082;-73
2022/06/20 05:48:48;;;;;;;7.65;2.47;;;13.30;99.90;;;;;;5004851;28;20041;-74
2022/06/20 05:51:17;;;;;;;13.02;2.25;;;13.30;99.90;;;;;;5027327;28;20091;-72
2022/06/20 05:53:56;;;;;;;7.25;2.05;;;13.30;99.90;;;;;;5027759;28;20120;-72
2022/06/20 05:56:36;;;;;;;7.45;2.10;;;13.30;99.90;;;;;;5007389;28;20037;-72
2022/06/20 05:59:04;;;;;;;7.82;2.15;;;13.40;99.90;;;;;;5023356;28;20071;-77
2022/06/20 06:01:32;;;;;;;6.88;1.77;;;13.40;99.90;;;;;;5018524;28;20037;-72
2022/06/20 06:04:07;;;;;;;9.90;2.42;;;13.40;99.90;;;;;;5029122;28;20040;-72
2022/06/20 06:06:40;;;;;;;5.30;1.88;;;13.40;99.90;;;;;;5026992;28;20044;-73
2022/06/20 06:09:20;;;;;;;6.85;2.20;;;13.50;99.90;;;;;;5009231;28;20127;-72
2022/06/20 06:11:54;;;;;;;6.60;2.08;;;13.50;99.90;;;;;;5016385;28;20226;-74
2022/06/20 06:14:43;;;;;;;7.10;1.60;;;13.50;99.90;;;;;;5022376;28;20527;-72
2022/06/20 06:17:17;;;;;;;6.25;1.92;;;13.60;99.90;;;;;;5026100;28;20029;-73
2022/06/20 06:19:57;;;;;;;6.63;1.50;;;13.60;99.90;;;;;;5005917;28;20124;-73
2022/06/20 06:22:44;;;;;;;9.00;2.30;;;13.60;99.90;;;;;;5028906;28;20107;-74
2022/06/20 06:25:27;;;;;;;7.82;1.88;;;13.70;99.90;;;;;;5006729;28;20056;-71
2022/06/20 06:28:06;;;;;;;5.75;1.80;;;13.80;99.90;;;;;;5019483;28;20113;-72
2022/06/20 06:30:37;;;;;;;5.55;2.00;;;13.90;99.90;;;;;;5007404;28;20120;-70
2022/06/20 06:33:20;;;;;;;6.22;1.65;;;14.10;99.90;;;;;;5033208;28;20028;-73
2022/06/20 06:36:09;;;;;;;5.05;1.67;;;14.20;99.90;;;;;;5027049;28;20435;-70
2022/06/20 06:38:40;;;;;;;6.53;1.80;;;14.30;99.50;;;;;;5010368;28;20041;-73
2022/06/20 06:41:14;;;;;;;5.03;1.50;;;14.30;99.30;;;;;;5037109;28;20033;-71
2022/06/20 06:43:44;;;;;;;5.10;1.73;;;14.30;99.10;;;;;;5010342;28;20472;-71
2022/06/20 06:46:21;;;;;;;4.35;1.55;;;14.30;98.90;;;;;;5016330;28;20026;-73
2022/06/20 06:48:57;;;;;;;5.47;1.60;;;14.30;98.70;;;;;;5030248;28;20495;-70
2022/06/20 06:52:13;;;;;;;3.97;1.30;;;14.30;98.10;;;;;;5013099;28;20025;-71
2022/06/20 06:54:41;;;;;;;4.78;1.30;;;14.30;98.10;;;;;;4965377;28;20051;-70
2022/06/20 06:57:21;;;;;;;3.90;1.60;;;14.40;97.80;;;;;;4966628;28;20046;-73
2022/06/20 07:00:19;;;;;;;5.00;1.55;;;14.40;96.90;;;;;;4946221;28;20753;-75
2022/06/20 07:03:24;;;;;;;4.32;1.27;;;14.40;96.80;;;;;;4953691;28;20057;-71
2022/06/20 07:06:20;;;;;;;5.38;1.50;;;14.50;96.80;;;;;;4946939;29;20043;-73
2022/06/20 07:08:52;;;;;;;5.93;1.60;;;14.50;96.40;;;;;;4925709;29;20042;-74
2022/06/20 07:11:22;;;;;;;5.50;1.38;;;14.50;95.90;;;;;;4943749;29;20039;-74
2022/06/20 07:13:55;;;;;;;;;;;14.60;95.40;;;;;;4929853;29;20039;-72
2022/06/20 07:16:30;;;;;;;7.28;1.50;;;14.60;95.70;;;;;;4944889;28;19922;-71
2022/06/20 07:18:58;;;;;;;5.97;1.25;;;14.60;96.10;;;;;;4926507;29;20044;-72
2022/06/20 07:21:25;;;;;;;5.85;1.30;;;14.60;95.70;;;;;;4940716;29;20130;-73
2022/06/20 07:24:01;;;;;;;5.20;1.30;;;14.60;96.10;;;;;;4945303;28;20039;-73
2022/06/20 07:26:32;;;;;;;4.18;1.38;;;14.60;95.90;;;;;;4951163;28;20080;-73
2022/06/20 07:29:06;;;;;;;4.90;1.33;;;14.60;95.80;;;;;;4977905;28;20077;-72
2022/06/20 07:31:56;;;;;;;4.28;1.30;;;14.70;95.60;;;;;;4956352;28;20089;-73
2022/06/20 07:34:33;;;;;;;5.18;1.38;;;15.00;95.20;;;;;;4968356;28;20055;-73
2022/06/20 07:37:05;;;;;;;4.72;1.10;;;15.20;94.10;;;;;;4967987;28;20058;-72
2022/06/20 07:39:38;;;;;;;6.85;1.30;;;15.40;93.50;;;;;;4966266;28;20065;-71
2022/06/20 07:42:08;;;;;;;4.63;1.35;;;15.60;93.00;;;;;;5018230;28;20056;-73
2022/06/20 07:44:44;;;;;;;4.95;1.20;;;15.80;92.70;;;;;;5046354;28;20059;-72
2022/06/20 07:47:23;;;;;;;4.05;1.30;;;15.90;92.70;;;;;;5030916;28;20688;-72
2022/06/20 07:49:57;;;;;;;3.88;1.33;;;16.10;92.40;;;;;;5049159;28;20048;-73
2022/06/20 07:52:30;;;;;;;6.05;1.50;;;16.30;91.00;;;;;;5027692;28;20036;-75
2022/06/20 07:54:59;;;;;;;5.70;1.25;;;16.30;90.60;;;;;;5048520;28;20694;-72
2022/06/20 07:57:35;;;;;;;5.03;1.40;;;16.40;90.40;;;;;;5047596;28;20243;-71
2022/06/20 08:00:04;;;;;;;4.10;1.17;;;16.50;90.40;;;;;;5010843;28;20025;-72
2022/06/20 08:02:35;;;;;;;4.93;1.20;;;16.60;90.30;;;;;;5028774;28;20037;-73
2022/06/20 08:05:02;;;;;;;6.63;1.33;;;16.60;89.20;;;;;;5028729;28;20787;-72
2022/06/20 08:07:42;;;;;;;4.88;1.48;;;16.70;89.50;;;;;;5007812;28;20029;-72
2022/06/20 08:10:15;;;;;;;4.18;1.10;;;16.80;90.00;;;;;;5019805;28;20055;-72
2022/06/20 08:12:54;;;;;;;4.18;1.40;;;16.90;88.80;;;;;;5023098;28;20044;-72
2022/06/20 08:15:30;;;;;;;4.85;1.27;;;16.90;90.10;;;;;;5017146;28;20162;-77
2022/06/20 08:17:55;;;;;;;4.78;1.40;;;17.10;89.40;;;;;;5006684;28;20465;-77
2022/06/20 08:20:25;;;;;;;4.78;1.10;;;17.10;87.50;;;;;;5010691;28;20065;-72
2022/06/20 08:23:04;;;;;;;5.63;1.17;;;17.20;87.10;;;;;;4996786;28;20026;-74
2022/06/20 08:25:36;;;;;;;2.38;0.90;;;17.20;85.40;;;;;;5007129;28;20038;-72
2022/06/20 08:28:01;;;;;;;4.97;1.48;;;17.30;87.30;;;;;;5003929;28;20052;-73
2022/06/20 08:30:43;;;;;;;6.43;1.35;;;17.30;86.60;;;;;;4990635;28;20395;-75
2022/06/20 08:33:30;;;;;;;3.78;1.25;;;17.40;88.30;;;;;;5000376;28;20487;-78
2022/06/20 08:36:14;;;;;;;5.20;1.20;;;17.50;85.90;;;;;;4988282;28;20089;-75
2022/06/20 08:39:05;;;;;;;2.88;1.00;;;17.70;84.40;;;;;;5003846;28;20033;-76
2022/06/20 08:41:49;;;;;;;3.80;1.20;;;17.80;81.90;;;;;;5010777;28;20373;-75
2022/06/20 08:44:26;;;;;;;4.00;0.98;;;17.90;80.20;;;;;;5013265;28;20361;-78
2022/06/20 08:47:06;;;;;;;4.47;1.27;;;17.90;82.60;;;;;;5007302;28;20048;-74
2022/06/20 08:49:56;;;;;;;7.07;1.40;;;18.00;82.30;;;;;;5007892;28;20034;-76
2022/06/20 08:52:34;;;;;;;3.85;1.05;;;18.20;80.00;;;;;;5009156;28;20036;-77
2022/06/20 08:55:21;;;;;;;6.95;1.20;;;18.20;78.80;;;;;;4992297;28;20053;-77
2022/06/20 08:57:55;;;;;;;4.20;1.33;;;18.20;74.60;;;;;;5021330;28;20084;-77
2022/06/20 09:00:45;;;;;;;2.88;1.08;;;18.20;75.50;;;;;;5017768;28;20041;-75
2022/06/20 09:03:23;;;;;;;5.75;1.38;;;18.20;79.30;;;;;;5028832;28;20033;-74
2022/06/20 09:05:59;;;;;;;5.45;1.30;;;18.30;78.30;;;;;;5026462;28;20030;-76
2022/06/20 09:08:54;;;;;;;5.57;1.38;;;18.30;82.50;;;;;;5032526;28;20400;-76
2022/06/20 09:11:54;;;;;;;4.93;1.23;;;18.40;78.60;;;;;;5024028;28;20060;-77
2022/06/20 09:15:02;;;;;;;6.15;1.42;;;18.30;80.60;;;;;;5036825;28;20026;-74
2022/06/20 09:17:40;;;;;;;5.43;1.33;;;18.40;78.50;;;;;;5022275;28;20399;-73
2022/06/20 09:20:34;;;;;;;4.03;1.20;;;18.30;79.60;;;;;;5027232;28;20045;-77
2022/06/20 09:23:12;;;;;;;3.92;1.10;;;18.40;79.20;;;;;;4995571;28;20045;-81
2022/06/20 09:25:53;;;;;;;4.88;1.20;;;18.40;77.00;;;;;;5039742;28;20485;-74
2022/06/20 09:28:34;;;;;;;5.57;1.48;;;18.40;78.70;;;;;;5019535;28;20033;-76
2022/06/20 09:31:17;;;;;;;5.20;1.08;;;18.50;77.80;;;;;;5026479;28;20032;-74
2022/06/20 09:34:20;;;;;;;4.38;1.10;;;18.50;76.60;;;;;;5029116;28;20609;-77
2022/06/20 09:37:14;;;;;;;7.80;1.50;;;18.50;77.80;;;;;;5026793;28;20164;-73
2022/06/20 09:40:19;;;;;;;5.93;1.40;;;18.60;76.00;;;;;;5009286;28;20090;-74
2022/06/20 09:43:16;;;;;;;6.45;1.42;;;18.60;76.30;;;;;;5029056;28;20498;-75
2022/06/20 09:46:00;;;;;;;5.00;1.70;;;18.70;76.80;;;;;;5035520;28;20033;-73
2022/06/20 09:48:36;;;;;;;8.23;1.30;;;18.70;77.20;;;;;;5026595;28;20083;-73
2022/06/20 09:51:22;;;;;;;6.45;1.60;;;18.80;75.40;;;;;;5025817;28;21687;-74
2022/06/20 09:54:12;;;;;;;6.13;1.38;;;18.90;79.70;;;;;;5017354;28;20022;-73
2022/06/20 09:57:09;;;;;;;4.10;1.33;;;19.00;79.80;;;;;;5029698;28;20069;-74
2022/06/20 09:59:57;;;;;;;3.47;1.25;;;19.00;74.20;;;;;;5034462;28;20123;-75
2022/06/20 10:02:35;;;;;;;4.78;1.50;;;18.90;74.20;;;;;;5032195;28;20051;-75
2022/06/20 10:05:42;;;;;;;4.60;1.42;;;19.00;77.90;;;;;;5032333;28;20037;-74
2022/06/20 10:08:25;;;;;;;4.50;1.20;;;19.10;76.80;;;;;;4965490;28;20042;-73
2022/06/20 10:10:54;;;;;;;6.45;1.60;;;19.20;74.30;;;;;;4968788;28;20030;-74
2022/06/20 10:13:37;;;;;;;3.97;1.13;;;19.20;76.60;;;;;;4968424;28;20042;-74
2022/06/20 10:16:26;;;;;;;5.78;1.42;;;19.20;74.90;;;;;;4967094;28;20517;-74
2022/06/20 10:18:54;;;;;;;;;;;19.30;76.30;;;;;;4973719;28;20042;-73
2022/06/20 10:21:37;;;;;;;6.85;1.60;;;19.30;77.40;;;;;;4967500;28;19955;-75
2022/06/20 10:24:08;;;;;;;7.45;1.75;;;19.40;76.10;;;;;;4968128;28;20039;-75
2022/06/20 10:26:47;;;;;;;5.15;1.40;;;19.50;73.70;;;;;;4968289;28;20058;-73
2022/06/20 10:29:23;;;;;;;4.90;1.50;;;19.60;74.00;;;;;;4968465;28;20039;-74
2022/06/20 10:31:59;;;;;;;5.10;1.33;;;19.70;74.80;;;;;;4968088;28;20039;-76
2022/06/20 10:34:28;;;;;;;5.28;1.50;;;19.80;69.70;;;;;;4968327;28;20045;-73
2022/06/20 10:37:12;;;;;;;4.95;1.20;;;19.80;70.30;;;;;;4967098;28;20411;-73
2022/06/20 10:39:59;;;;;;;4.57;1.30;;;19.90;71.50;;;;;;5028254;28;20041;-75
2022/06/20 10:42:47;;;;;;;5.22;1.45;;;20.10;73.10;;;;;;5011944;28;20037;-74
2022/06/20 10:45:40;;;;;;;4.28;1.55;;;20.30;70.30;;;;;;4996652;28;20037;-73
2022/06/20 10:48:20;;;;;;;2.60;1.00;;;20.40;71.50;;;;;;5029663;28;20029;-75
2022/06/20 10:51:07;;;;;;;4.53;1.60;;;20.60;66.60;;;;;;5016030;28;20034;-77
2022/06/20 10:53:32;;;;;;;4.72;1.45;;;20.60;62.80;;;;;;5030000;28;20037;-77
2022/06/20 10:56:11;;;;;;;7.00;1.60;;;20.60;63.00;;;;;;5026263;28;20095;-74
2022/06/20 10:58:52;;;;;;;3.95;1.35;;;20.60;64.70;;;;;;5032652;28;20049;-74
2022/06/20 11:02:02;;;;;;;5.18;1.60;;;20.60;65.50;;;;;;5033712;28;20400;-76
2022/06/20 11:05:03;;;;;;;5.05;1.38;;;20.70;65.00;;;;;;4969277;28;20035;-76
2022/06/20 11:07:54;;;;;;;4.28;1.58;;;20.70;64.90;;;;;;4959912;28;20722;-78
2022/06/20 11:10:37;;;;;;;6.03;1.40;;;20.60;63.10;;;;;;4955661;28;20129;-77
2022/06/20 11:13:17;;;;;;;3.65;1.20;;;20.80;64.60;;;;;;4971907;28;20038;-75
2022/06/20 11:16:00;;;;;;;5.00;1.40;;;21.00;64.00;;;;;;4972258;28;20407;-75
2022/06/20 11:18:50;;;;;;;5.88;1.58;;;21.30;59.70;;;;;;4967647;28;20129;-73
2022/06/20 11:21:16;;;;;;;5.50;1.55;;;22.10;57.30;;;;;;4974460;28;20065;-75
2022/06/20 11:24:09;;;;;;;5.25;1.30;;;23.60;53.90;;;;;;4966827;28;20773;-75
2022/06/20 11:27:01;;;;;;;5.68;1.60;;;25.50;48.90;;;;;;4966246;28;20035;-74
2022/06/20 11:29:53;;;;;;;5.13;1.42;;;25.90;45.50;;;;;;4978554;28;20121;-75
2022/06/20 11:32:56;;;;;;;5.20;1.40;;;26.60;43.10;;;;;;4968565;28;20037;-77
2022/06/20 11:35:24;;;;;;;5.60;1.48;;;27.20;41.30;;;;;;4957872;28;20138;-75
2022/06/20 11:38:25;;;;;;;4.53;1.50;;;26.60;40.60;;;;;;4981355;28;20035;-73
2022/06/20 11:40:51;;;;;;;5.75;1.40;;;25.40;41.60;;;;;;5009629;28;20103;-75
2022/06/20 11:43:41;;;;;;;7.18;1.70;;;24.40;47.90;;;;;;5028601;28;20365;-75
2022/06/20 11:46:30;;;;;;;4.13;1.30;;;23.60;48.40;;;;;;5028397;28;20040;-77
2022/06/20 11:49:20;;;;;;;6.68;1.30;;;23.10;48.00;;;;;;5025443;28;20033;-77
2022/06/20 11:52:41;;;;;;;3.88;1.20;;;22.70;49.60;;;;;;5020419;28;20041;-77
2022/06/20 11:55:27;;;;;;;4.30;1.13;;;22.50;50.10;;;;;;5014475;28;20056;-78
2022/06/20 11:58:21;;;;;;;4.80;1.50;;;22.30;50.60;;;;;;5027046;28;20121;-75
2022/06/20 12:01:23;;;;;;;4.80;1.52;;;22.20;50.30;;;;;;5018377;28;20091;-76
2022/06/20 12:04:08;;;;;;;3.00;1.40;;;22.10;51.20;;;;;;5000563;28;20543;-78
2022/06/20 12:06:36;;;;;;;5.10;1.60;;;22.10;50.70;;;;;;5008314;28;20606;-76
2022/06/20 12:09:05;;;;;;;4.78;1.27;;;22.30;52.50;;;;;;5008849;28;20034;-77
2022/06/20 12:11:50;;;;;;;4.03;1.60;;;22.30;50.80;;;;;;5001407;28;20581;-75
2022/06/20 12:14:15;;;;;;;5.80;1.48;;;22.20;51.10;;;;;;4997466;28;20026;-76
2022/06/20 12:16:51;;;;;;;5.38;1.50;;;22.10;51.80;;;;;;5005300;28;20041;-74
2022/06/20 12:24:58;;;;;;;4.47;1.50;;;21.90;52.00;;;;;;5007067;28;20065;-76
2022/06/20 12:27:26;;;;;;;6.38;1.67;;;21.90;53.80;;;;;;4989707;28;20045;-77
2022/06/20 12:29:52;;;;;;;7.67;1.97;;;21.90;55.20;;;;;;5008295;28;20046;-74
2022/06/20 12:32:24;;;;;;;5.85;1.67;;;22.00;52.40;;;;;;5005025;28;20397;-76
2022/06/20 12:35:01;;;;;;;4.00;1.30;;;22.10;52.50;;;;;;4986729;28;20131;-77
2022/06/20 12:37:48;;;;;;;6.07;1.75;;;22.10;52.90;;;;;;5007451;28;20149;-76
2022/06/20 12:40:22;;;;;;;7.40;1.90;;;22.00;54.60;;;;;;4990114;28;20034;-76
2022/06/20 12:43:12;;;;;;;4.97;1.50;;;22.00;53.50;;;;;;5005114;28;20095;-73
2022/06/20 12:46:14;;;;;;;5.70;1.67;;;22.00;54.90;;;;;;5012356;28;20062;-77
2022/06/20 12:49:04;;;;;;;6.22;1.40;;;22.10;51.60;;;;;;5000370;28;20030;-77
2022/06/20 12:52:01;;;;;;;5.30;1.60;;;22.10;53.60;;;;;;5005584;28;20436;-76
2022/06/20 12:54:52;;;;;;;5.40;1.88;;;22.30;52.70;;;;;;4997222;28;20827;-76
2022/06/20 12:57:21;;;;;;;6.00;2.05;;;22.20;53.40;;;;;;5005512;28;20048;-76
2022/06/20 13:00:14;;;;;;;4.70;1.55;;;22.20;55.40;;;;;;5024928;28;20056;-78
2022/06/20 13:02:59;;;;;;;5.22;1.90;;;22.50;58.00;;;;;;5027334;28;20033;-77
2022/06/20 13:05:57;;;;;;;6.03;1.60;;;22.70;54.90;;;;;;5008107;28;20029;-76
2022/06/20 13:08:46;;;;;;;6.53;2.03;;;22.60;52.10;;;;;;5011416;28;20029;-76
2022/06/20 13:11:17;;;;;;;5.88;2.08;;;22.50;53.30;;;;;;5026395;28;20041;-77
2022/06/20 13:13:46;;;;;;;5.75;1.70;;;22.30;52.70;;;;;;5023909;28;20545;-77
2022/06/20 13:16:41;;;;;;;6.97;1.90;;;22.10;53.10;;;;;;5030830;28;20535;-78
2022/06/20 13:19:31;;;;;;;7.65;2.08;;;22.10;52.50;;;;;;5038369;28;20144;-77
2022/06/20 13:22:07;;;;;;;6.00;1.90;;;22.10;52.80;;;;;;5012902;28;20395;-77
2022/06/20 13:24:57;;;;;;;5.07;1.90;;;22.20;53.00;;;;;;5030371;28;20041;-76
2022/06/20 13:27:42;;;;;;;6.35;1.67;;;22.30;49.70;;;;;;5031430;28;20083;-76
2022/06/20 13:30:49;;;;;;;6.40;1.70;;;22.30;49.10;;;;;;5012250;28;20044;-77
2022/06/20 13:33:34;;;;;;;4.93;1.67;;;22.10;49.60;;;;;;4986709;28;20053;-77
2022/06/20 13:36:33;;;;;;;5.30;1.58;;;22.10;50.00;;;;;;5013104;28;20088;-77
2022/06/20 13:39:41;;;;;;;5.70;1.80;;;22.10;50.00;;;;;;5030969;28;20037;-77
2022/06/20 13:42:22;;;;;;;6.63;1.80;;;22.20;48.60;;;;;;4984085;28;20045;-75
2022/06/20 13:45:14;;;;;;;6.57;1.83;;;22.20;48.00;;;;;;5011399;28;20037;-76
2022/06/20 13:48:01;;;;;;;6.18;1.70;;;22.30;48.90;;;;;;5012030;28;20036;-76
2022/06/20 13:50:39;;;;;;;7.88;1.80;;;22.40;48.10;;;;;;5029274;28;20037;-76
2022/06/20 13:53:08;;;;;;;6.00;1.70;;;22.40;48.90;;;;;;5028256;28;20033;-76
2022/06/20 13:56:04;;;;;;;5.85;2.00;;;22.40;49.70;;;;;;5027666;28;20523;-76